createdAt,value
2023-03-02T00:00:10.812Z,-0.38
2023-03-02T00:00:25.850Z,-0.37
2023-03-02T00:01:04.389Z,-0.36
2023-03-02T00:01:17.273Z,-0.40
2023-03-02T00:01:34.017Z,-0.35
2023-03-02T00:01:50.553Z,-0.34
2023-03-02T00:02:09.498Z,-0.33
2023-03-02T00:02:22.664Z,-0.34
2023-03-02T00:02:39.654Z,-0.33
2023-03-02T00:02:52.519Z,-0.32
2023-03-02T00:03:06.141Z,-0.32
2023-03-02T00:03:18.998Z,-0.31
2023-03-02T00:03:33.567Z,-0.32
2023-03-02T00:03:46.411Z,-0.31
2023-03-02T00:04:02.852Z,-0.31
2023-03-02T00:04:21.692Z,-0.32
2023-03-02T00:04:40.233Z,-0.31
2023-03-02T00:04:55.355Z,-0.30
2023-03-02T00:05:11.083Z,-0.30
2023-03-02T00:05:24.505Z,-0.29
2023-03-02T00:05:41.150Z,-0.31
2023-03-02T00:05:55.428Z,-0.30
2023-03-02T00:06:09.238Z,-0.29
2023-03-02T00:06:22.194Z,-0.28
2023-03-02T00:06:36.637Z,-0.28
2023-03-02T00:06:51.983Z,-0.27
2023-03-02T00:07:07.982Z,-0.27
2023-03-02T00:07:33.901Z,-0.28
2023-03-02T00:07:46.682Z,-0.23
2023-03-02T00:08:01.692Z,-0.23
2023-03-02T00:08:17.477Z,-0.22
2023-03-02T00:08:30.477Z,-0.22
2023-03-02T00:08:43.834Z,-0.21
2023-03-02T00:09:00.689Z,-0.21
2023-03-02T00:09:14.728Z,-0.19
2023-03-02T00:09:28.349Z,-0.20
2023-03-02T00:09:41.607Z,-0.22
2023-03-02T00:09:55.518Z,-0.20
2023-03-02T00:10:09.363Z,-0.19
2023-03-02T00:10:22.261Z,-0.19
2023-03-02T00:10:35.726Z,-0.18
2023-03-02T00:10:48.396Z,-0.17
2023-03-02T00:11:03.045Z,-0.17
2023-03-02T00:11:15.696Z,-0.16
2023-03-02T00:11:30.479Z,-0.17
2023-03-02T00:11:43.304Z,-0.15
2023-03-02T00:11:56.447Z,-0.15
2023-03-02T00:12:09.720Z,-0.14
2023-03-02T00:12:22.814Z,-0.13
2023-03-02T00:12:36.720Z,-0.13
2023-03-02T00:12:49.834Z,-0.13
2023-03-02T00:13:03.305Z,-0.14
2023-03-02T00:13:16.320Z,-0.12
2023-03-02T00:13:30.393Z,-0.12
2023-03-02T00:13:44.160Z,-0.11
2023-03-02T00:13:57.062Z,-0.12
2023-03-02T00:14:10.765Z,-0.12
2023-03-02T00:14:23.504Z,-0.11
2023-03-02T00:14:37.981Z,-0.11
2023-03-02T00:14:50.953Z,-0.11
2023-03-02T00:15:04.389Z,-0.11
2023-03-02T00:15:17.222Z,-0.11
2023-03-02T00:15:29.947Z,-0.11
2023-03-02T00:15:42.730Z,-0.11
2023-03-02T00:15:55.452Z,-0.10
2023-03-02T00:16:09.609Z,-0.09
2023-03-02T00:16:22.404Z,-0.09
2023-03-02T00:16:35.384Z,-0.09
2023-03-02T00:16:48.420Z,-0.09
2023-03-02T00:17:02.782Z,-0.09
2023-03-02T00:17:15.506Z,-0.09
2023-03-02T00:17:28.206Z,-0.09
2023-03-02T00:17:40.956Z,-0.09
2023-03-02T00:17:54.653Z,-0.09
2023-03-02T00:18:07.360Z,-0.08
2023-03-02T00:18:20.065Z,-0.07
2023-03-02T00:18:32.764Z,-0.07
2023-03-02T00:18:45.488Z,-0.07
2023-03-02T00:18:58.160Z,-0.08
2023-03-02T00:19:10.801Z,-0.08
2023-03-02T00:19:24.516Z,-0.06
2023-03-02T00:19:37.667Z,-0.06
2023-03-02T00:19:50.316Z,-0.06
2023-03-02T00:20:09.770Z,-0.05
2023-03-02T00:20:22.409Z,-0.05
2023-03-02T00:20:36.004Z,-0.05
2023-03-02T00:20:49.815Z,-0.04
2023-03-02T00:21:02.455Z,-0.03
2023-03-02T00:21:15.210Z,-0.03
2023-03-02T00:21:27.831Z,-0.02
2023-03-02T00:21:41.343Z,-0.02
2023-03-02T00:21:54.092Z,-0.02
2023-03-02T00:22:06.867Z,-0.04
2023-03-02T00:22:20.730Z,-0.01
2023-03-02T00:22:33.396Z,0.00
2023-03-02T00:22:46.934Z,-0.00
2023-03-02T00:23:01.005Z,0.01
2023-03-02T00:23:15.559Z,-0.02
2023-03-02T00:23:28.796Z,0.01
2023-03-02T00:23:41.633Z,0.00
2023-03-02T00:23:55.293Z,0.01
2023-03-02T00:24:08.248Z,0.01
2023-03-02T00:24:21.491Z,0.02
2023-03-02T00:24:34.185Z,0.02
2023-03-02T00:24:46.852Z,0.02
2023-03-02T00:24:59.515Z,0.02
2023-03-02T00:25:13.534Z,0.02
2023-03-02T00:25:28.745Z,0.02
2023-03-02T00:25:41.518Z,0.02
2023-03-02T00:25:54.199Z,0.02
2023-03-02T00:26:07.508Z,0.01
2023-03-02T00:26:20.533Z,0.02
2023-03-02T00:26:34.865Z,0.02
2023-03-02T00:26:47.625Z,0.02
2023-03-02T00:27:00.566Z,0.02
2023-03-02T00:27:13.252Z,0.02
2023-03-02T00:27:30.023Z,0.02
2023-03-02T00:27:43.218Z,0.02
2023-03-02T00:27:57.001Z,0.02
2023-03-02T00:28:09.955Z,0.02
2023-03-02T00:28:22.603Z,0.02
2023-03-02T00:28:35.594Z,0.02
2023-03-02T00:28:48.503Z,0.03
2023-03-02T00:29:01.226Z,0.03
2023-03-02T00:29:14.131Z,0.01
2023-03-02T00:29:28.180Z,0.02
2023-03-02T00:29:42.232Z,0.02
2023-03-02T00:29:54.908Z,0.03
2023-03-02T00:30:09.189Z,0.02
2023-03-02T00:30:21.910Z,0.03
2023-03-02T00:30:34.644Z,0.02
2023-03-02T00:30:47.290Z,0.02
2023-03-02T00:31:00.323Z,0.03
2023-03-02T00:31:14.051Z,0.03
2023-03-02T00:31:27.066Z,0.04
2023-03-02T00:31:39.829Z,0.04
2023-03-02T00:31:52.899Z,0.04
2023-03-02T00:32:06.710Z,0.04
2023-03-02T00:32:21.562Z,0.04
2023-03-02T00:32:35.159Z,0.05
2023-03-02T00:32:49.015Z,0.05
2023-03-02T00:33:01.698Z,0.05
2023-03-02T00:33:14.571Z,0.07
2023-03-02T00:33:27.243Z,0.07
2023-03-02T00:33:39.874Z,0.08
2023-03-02T00:33:54.405Z,0.08
2023-03-02T00:34:08.209Z,0.06
2023-03-02T00:34:20.916Z,0.09
2023-03-02T00:34:33.632Z,0.09
2023-03-02T00:34:46.341Z,0.09
2023-03-02T00:34:59.022Z,0.07
2023-03-02T00:35:12.457Z,0.09
2023-03-02T00:35:26.892Z,0.08
2023-03-02T00:35:41.322Z,0.09
2023-03-02T00:35:54.149Z,0.09
2023-03-02T00:36:14.300Z,0.10
2023-03-02T00:36:27.031Z,0.10
2023-03-02T00:36:40.191Z,0.10
2023-03-02T00:36:53.144Z,0.10
2023-03-02T00:37:05.808Z,0.11
2023-03-02T00:37:18.715Z,0.05
2023-03-02T00:37:32.404Z,0.11
2023-03-02T00:37:45.265Z,0.12
2023-03-02T00:37:57.923Z,0.12
2023-03-02T00:38:12.029Z,0.13
2023-03-02T00:38:24.816Z,0.14
2023-03-02T00:38:37.449Z,0.14
2023-03-02T00:38:53.471Z,0.15
2023-03-02T00:39:07.155Z,0.16
2023-03-02T00:39:20.266Z,0.16
2023-03-02T00:39:33.381Z,0.15
2023-03-02T00:39:46.080Z,0.19
2023-03-02T00:39:58.768Z,0.20
2023-03-02T00:40:12.436Z,0.19
2023-03-02T00:40:25.072Z,0.20
2023-03-02T00:40:37.761Z,0.20
2023-03-02T00:40:51.489Z,0.21
2023-03-02T00:41:04.467Z,0.21
2023-03-02T00:41:17.157Z,0.23
2023-03-02T00:41:29.936Z,0.23
2023-03-02T00:41:42.669Z,0.23
2023-03-02T00:41:55.373Z,0.24
2023-03-02T00:42:08.070Z,0.24
2023-03-02T00:42:21.256Z,0.24
2023-03-02T00:42:35.423Z,0.24
2023-03-02T00:42:48.073Z,0.25
2023-03-02T00:43:00.908Z,0.25
2023-03-02T00:43:14.010Z,0.26
2023-03-02T00:43:28.151Z,0.27
2023-03-02T00:43:41.022Z,0.26
2023-03-02T00:43:53.715Z,0.27
2023-03-02T00:44:06.452Z,0.27
2023-03-02T00:44:20.132Z,0.28
2023-03-02T00:44:32.812Z,0.28
2023-03-02T00:44:45.539Z,0.29
2023-03-02T00:44:59.260Z,0.28
2023-03-02T00:45:12.273Z,0.28
2023-03-02T00:45:24.955Z,0.28
2023-03-02T00:45:38.655Z,0.27
2023-03-02T00:45:51.551Z,0.28
2023-03-02T00:46:09.903Z,0.28
2023-03-02T00:46:24.406Z,0.29
2023-03-02T00:46:37.227Z,0.29
2023-03-02T00:46:50.009Z,0.29
2023-03-02T00:47:03.147Z,0.30
2023-03-02T00:47:16.069Z,0.30
2023-03-02T00:47:30.205Z,0.30
2023-03-02T00:47:42.883Z,0.30
2023-03-02T00:47:55.598Z,0.31
2023-03-02T00:48:09.151Z,0.31
2023-03-02T00:48:21.787Z,0.31
2023-03-02T00:48:34.462Z,0.31
2023-03-02T00:48:47.410Z,0.31
2023-03-02T00:49:01.246Z,0.30
2023-03-02T00:49:14.196Z,0.31
2023-03-02T00:49:26.862Z,0.30
2023-03-02T00:49:39.635Z,0.30
2023-03-02T00:49:52.272Z,0.31
2023-03-02T00:50:06.522Z,0.29
2023-03-02T00:50:19.352Z,0.31
2023-03-02T00:50:33.052Z,0.30
2023-03-02T00:50:45.711Z,0.31
2023-03-02T00:51:00.959Z,0.32
2023-03-02T00:51:14.014Z,0.30
2023-03-02T00:51:26.689Z,0.33
2023-03-02T00:51:39.375Z,0.33
2023-03-02T00:51:52.078Z,0.33
2023-03-02T00:52:06.253Z,0.34
2023-03-02T00:52:19.158Z,0.31
2023-03-02T00:52:32.591Z,0.35
2023-03-02T00:52:45.280Z,0.35
2023-03-02T00:52:57.979Z,0.35
2023-03-02T00:53:12.223Z,0.36
2023-03-02T00:53:24.886Z,0.35
2023-03-02T00:53:38.037Z,0.35
2023-03-02T00:53:51.678Z,0.35
2023-03-02T00:54:04.497Z,0.36
2023-03-02T00:54:17.315Z,0.36
2023-03-02T00:54:29.979Z,0.36
2023-03-02T00:54:43.371Z,0.37
2023-03-02T00:54:56.075Z,0.36
2023-03-02T00:55:09.521Z,0.36
2023-03-02T00:55:23.370Z,0.39
2023-03-02T00:55:36.725Z,0.38
2023-03-02T00:55:53.636Z,0.33
2023-03-02T00:56:07.486Z,0.38
2023-03-02T00:56:20.180Z,0.39
2023-03-02T00:56:33.215Z,0.35
2023-03-02T00:56:46.288Z,0.40
2023-03-02T00:56:58.954Z,0.40
2023-03-02T00:57:12.727Z,0.39
2023-03-02T00:57:25.549Z,0.40
2023-03-02T00:57:38.196Z,0.40
2023-03-02T00:57:55.160Z,0.40
2023-03-02T00:58:07.828Z,0.40
2023-03-02T00:58:21.422Z,0.41
2023-03-02T00:58:34.846Z,0.40
2023-03-02T00:58:48.820Z,0.41
2023-03-02T00:59:05.674Z,0.41
2023-03-02T00:59:26.434Z,0.41
2023-03-02T00:59:39.858Z,0.41
2023-03-02T00:59:52.739Z,0.42
2023-03-02T01:00:06.703Z,0.42
2023-03-02T01:00:20.152Z,0.42
2023-03-02T01:00:35.651Z,0.41
2023-03-02T01:00:48.390Z,0.41
2023-03-02T01:01:07.751Z,0.41
2023-03-02T01:01:20.538Z,0.42
2023-03-02T01:01:33.214Z,0.42
2023-03-02T01:01:45.847Z,0.41
2023-03-02T01:02:00.715Z,0.40
2023-03-02T01:02:14.507Z,0.42
2023-03-02T01:02:27.475Z,0.42
2023-03-02T01:02:44.355Z,0.43
2023-03-02T01:02:58.296Z,0.44
2023-03-02T01:03:11.136Z,0.39
2023-03-02T01:03:25.255Z,0.38
2023-03-02T01:03:38.440Z,0.37
2023-03-02T01:03:51.108Z,0.38
2023-03-02T01:04:04.010Z,0.37
2023-03-02T01:04:16.705Z,0.39
2023-03-02T01:04:31.598Z,0.39
2023-03-02T01:04:44.890Z,0.40
2023-03-02T01:04:57.598Z,0.40
2023-03-02T01:05:11.395Z,0.41
2023-03-02T01:05:24.348Z,0.41
2023-03-02T01:05:37.800Z,0.42
2023-03-02T01:05:56.333Z,0.42
2023-03-02T01:06:15.670Z,0.41
2023-03-02T01:06:29.540Z,0.42
2023-03-02T01:06:47.234Z,0.42
2023-03-02T01:07:02.428Z,0.43
2023-03-02T01:07:17.045Z,0.42
2023-03-02T01:07:29.707Z,0.43
2023-03-02T01:07:42.849Z,0.44
2023-03-02T01:07:56.571Z,0.43
2023-03-02T01:08:09.260Z,0.44
2023-03-02T01:08:25.207Z,0.45
2023-03-02T01:08:38.531Z,0.45
2023-03-02T01:08:51.223Z,0.45
2023-03-02T01:09:04.109Z,0.45
2023-03-02T01:09:16.801Z,0.45
2023-03-02T01:09:29.997Z,0.45
2023-03-02T01:09:45.712Z,0.46
2023-03-02T01:09:58.386Z,0.46
2023-03-02T01:10:12.328Z,0.46
2023-03-02T01:10:25.015Z,0.46
2023-03-02T01:10:38.839Z,0.47
2023-03-02T01:10:54.220Z,0.46
2023-03-02T01:11:13.636Z,0.47
2023-03-02T01:11:27.344Z,0.47
2023-03-02T01:11:40.014Z,0.48
2023-03-02T01:11:53.158Z,0.48
2023-03-02T01:12:09.408Z,0.48
2023-03-02T01:12:22.220Z,0.46
2023-03-02T01:12:35.116Z,0.46
2023-03-02T01:12:48.784Z,0.48
2023-03-02T01:13:01.685Z,0.47
2023-03-02T01:13:14.371Z,0.46
2023-03-02T01:13:27.524Z,0.48
2023-03-02T01:13:40.175Z,0.47
2023-03-02T01:13:52.845Z,0.47
2023-03-02T01:14:05.731Z,0.48
2023-03-02T01:14:19.091Z,0.46
2023-03-02T01:14:33.315Z,0.48
2023-03-02T01:14:48.201Z,0.48
2023-03-02T01:15:01.197Z,0.47
2023-03-02T01:15:14.140Z,0.48
2023-03-02T01:15:27.133Z,0.48
2023-03-02T01:15:39.888Z,0.49
2023-03-02T01:16:01.447Z,0.49
2023-03-02T01:16:14.666Z,0.50
2023-03-02T01:16:27.464Z,0.49
2023-03-02T01:16:40.217Z,0.50
2023-03-02T01:16:53.227Z,0.48
2023-03-02T01:17:07.788Z,0.49
2023-03-02T01:17:22.197Z,0.49
2023-03-02T01:17:36.064Z,0.49
2023-03-02T01:17:48.785Z,0.49
2023-03-02T01:18:01.714Z,0.49
2023-03-02T01:18:14.853Z,0.49
2023-03-02T01:18:27.504Z,0.50
2023-03-02T01:18:40.656Z,0.50
2023-03-02T01:18:53.316Z,0.50
2023-03-02T01:19:06.075Z,0.51
2023-03-02T01:19:20.420Z,0.51
2023-03-02T01:19:33.555Z,0.52
2023-03-02T01:19:46.460Z,0.52
2023-03-02T01:19:59.247Z,0.52
2023-03-02T01:20:13.393Z,0.52
2023-03-02T01:20:26.517Z,0.50
2023-03-02T01:20:39.408Z,0.52
2023-03-02T01:21:00.961Z,0.52
2023-03-02T01:21:17.058Z,0.52
2023-03-02T01:21:29.698Z,0.52
2023-03-02T01:21:42.966Z,0.53
2023-03-02T01:21:55.644Z,0.53
2023-03-02T01:22:09.439Z,0.52
2023-03-02T01:22:23.206Z,0.53
2023-03-02T01:22:35.858Z,0.52
2023-03-02T01:22:48.562Z,0.53
2023-03-02T01:23:02.267Z,0.53
2023-03-02T01:23:14.962Z,0.54
2023-03-02T01:23:29.064Z,0.54
2023-03-02T01:23:42.117Z,0.54
2023-03-02T01:23:54.818Z,0.53
2023-03-02T01:24:08.686Z,0.55
2023-03-02T01:24:21.378Z,0.56
2023-03-02T01:24:34.062Z,0.57
2023-03-02T01:24:47.744Z,0.57
2023-03-02T01:25:00.386Z,0.58
2023-03-02T01:25:13.449Z,0.58
2023-03-02T01:25:26.133Z,0.58
2023-03-02T01:25:39.819Z,0.59
2023-03-02T01:25:52.760Z,0.60
2023-03-02T01:26:05.710Z,0.60
2023-03-02T01:26:19.364Z,0.61
2023-03-02T01:26:32.284Z,0.60
2023-03-02T01:26:45.167Z,0.61
2023-03-02T01:26:57.899Z,0.61
2023-03-02T01:27:10.642Z,0.61
2023-03-02T01:27:23.272Z,0.61
2023-03-02T01:27:36.933Z,0.61
2023-03-02T01:27:49.626Z,0.63
2023-03-02T01:28:02.333Z,0.61
2023-03-02T01:28:15.029Z,0.63
2023-03-02T01:28:28.054Z,0.62
2023-03-02T01:28:40.746Z,0.63
2023-03-02T01:28:55.554Z,0.63
2023-03-02T01:29:09.337Z,0.62
2023-03-02T01:29:22.509Z,0.63
2023-03-02T01:29:35.153Z,0.63
2023-03-02T01:29:48.174Z,0.63
2023-03-02T01:30:00.924Z,0.64
2023-03-02T01:30:14.379Z,0.65
2023-03-02T01:30:28.025Z,0.64
2023-03-02T01:30:40.670Z,0.65
2023-03-02T01:30:54.360Z,0.65
2023-03-02T01:31:07.903Z,0.67
2023-03-02T01:31:20.696Z,0.65
2023-03-02T01:31:33.400Z,0.67
2023-03-02T01:31:46.215Z,0.66
2023-03-02T01:31:59.143Z,0.66
2023-03-02T01:32:13.116Z,0.66
2023-03-02T01:32:25.944Z,0.67
2023-03-02T01:32:38.702Z,0.66
2023-03-02T01:32:51.449Z,0.68
2023-03-02T01:33:04.185Z,0.68
2023-03-02T01:33:16.959Z,0.64
2023-03-02T01:33:30.594Z,0.68
2023-03-02T01:33:43.594Z,0.69
2023-03-02T01:33:56.478Z,0.69
2023-03-02T01:34:09.175Z,0.67
2023-03-02T01:34:21.867Z,0.70
2023-03-02T01:34:34.825Z,0.70
2023-03-02T01:34:47.503Z,0.70
2023-03-02T01:35:00.277Z,0.71
2023-03-02T01:35:13.980Z,0.72
2023-03-02T01:35:26.736Z,0.71
2023-03-02T01:35:39.456Z,0.72
2023-03-02T01:35:52.325Z,0.72
2023-03-02T01:36:05.864Z,0.72
2023-03-02T01:36:18.981Z,0.72
2023-03-02T01:36:31.908Z,0.73
2023-03-02T01:36:45.761Z,0.73
2023-03-02T01:36:58.648Z,0.73
2023-03-02T01:37:11.298Z,0.72
2023-03-02T01:37:24.291Z,0.72
2023-03-02T01:37:37.120Z,0.73
2023-03-02T01:37:49.850Z,0.71
2023-03-02T01:38:02.543Z,0.72
2023-03-02T01:38:16.569Z,0.70
2023-03-02T01:38:30.749Z,0.72
2023-03-02T01:38:43.711Z,0.73
2023-03-02T01:38:56.369Z,0.73
2023-03-02T01:39:09.040Z,0.73
2023-03-02T01:39:22.797Z,0.72
2023-03-02T01:39:35.768Z,0.73
2023-03-02T01:39:48.438Z,0.73
2023-03-02T01:40:06.586Z,0.73
2023-03-02T01:40:19.493Z,0.73
2023-03-02T01:40:32.185Z,0.73
2023-03-02T01:40:44.846Z,0.74
2023-03-02T01:40:57.493Z,0.74
2023-03-02T01:41:10.683Z,0.74
2023-03-02T01:41:23.630Z,0.75
2023-03-02T01:41:37.299Z,0.75
2023-03-02T01:41:52.500Z,0.75
2023-03-02T01:42:05.347Z,0.76
2023-03-02T01:42:18.175Z,0.75
2023-03-02T01:42:34.805Z,0.76
2023-03-02T01:42:56.864Z,0.77
2023-03-02T01:43:13.374Z,0.77
2023-03-02T01:43:26.277Z,0.78
2023-03-02T01:43:40.205Z,0.78
2023-03-02T01:43:52.832Z,0.79
2023-03-02T01:44:05.677Z,0.80
2023-03-02T01:44:36.367Z,0.82
2023-03-02T01:44:51.923Z,0.82
2023-03-02T01:45:05.522Z,0.83
2023-03-02T01:45:46.037Z,0.84
2023-03-02T01:46:01.736Z,0.85
2023-03-02T01:46:19.064Z,0.85
2023-03-02T01:46:35.193Z,0.82
2023-03-02T01:46:48.179Z,0.86
2023-03-02T01:47:01.807Z,0.85
2023-03-02T01:47:19.437Z,0.86
2023-03-02T01:47:35.460Z,0.85
2023-03-02T01:47:48.162Z,0.86
2023-03-02T01:48:00.793Z,0.87
2023-03-02T01:48:16.635Z,0.86
2023-03-02T01:48:32.602Z,0.88
2023-03-02T01:48:48.839Z,0.88
2023-03-02T01:49:04.796Z,0.86
2023-03-02T01:49:17.505Z,0.88
2023-03-02T01:49:34.682Z,0.86
2023-03-02T01:49:54.321Z,0.88
2023-03-02T01:50:19.320Z,0.89
2023-03-02T01:50:32.191Z,0.89
2023-03-02T01:50:45.393Z,0.89
2023-03-02T01:50:58.774Z,0.88
2023-03-02T01:51:14.866Z,0.89
2023-03-02T01:51:31.259Z,0.88
2023-03-02T01:51:47.920Z,0.89
2023-03-02T01:52:00.551Z,0.89
2023-03-02T01:52:13.650Z,0.88
2023-03-02T01:52:29.406Z,0.90
2023-03-02T01:52:42.524Z,0.91
2023-03-02T01:52:57.081Z,0.91
2023-03-02T01:53:09.827Z,0.91
2023-03-02T01:53:25.238Z,0.91
2023-03-02T01:53:39.281Z,0.93
2023-03-02T01:53:55.670Z,0.92
2023-03-02T01:54:22.990Z,0.93
2023-03-02T01:54:36.968Z,0.94
2023-03-02T01:54:52.021Z,0.94
2023-03-02T01:55:08.510Z,0.94
2023-03-02T01:55:25.322Z,0.95
2023-03-02T01:55:39.694Z,0.95
2023-03-02T01:55:54.221Z,0.95
2023-03-02T01:56:07.439Z,0.95
2023-03-02T01:56:25.587Z,0.95
2023-03-02T01:56:40.998Z,0.97
2023-03-02T01:56:59.778Z,0.98
2023-03-02T01:57:13.645Z,0.97
2023-03-02T01:57:30.740Z,0.98
2023-03-02T01:57:48.204Z,0.99
2023-03-02T01:58:01.777Z,0.99
2023-03-02T01:58:16.948Z,0.99
2023-03-02T01:58:34.589Z,1.01
2023-03-02T01:58:49.779Z,1.01
2023-03-02T01:59:11.013Z,0.99
2023-03-02T01:59:25.389Z,1.03
2023-03-02T01:59:41.543Z,1.02
2023-03-02T02:00:00.051Z,1.04
2023-03-02T02:00:17.247Z,1.04
2023-03-02T02:00:33.958Z,1.04
2023-03-02T02:00:47.663Z,1.04
2023-03-02T02:01:01.060Z,1.05
2023-03-02T02:01:15.804Z,1.06
2023-03-02T02:01:30.377Z,1.06
2023-03-02T02:01:50.428Z,1.06
2023-03-02T02:02:06.822Z,1.07
2023-03-02T02:02:20.052Z,1.07
2023-03-02T02:02:32.895Z,1.07
2023-03-02T02:02:45.905Z,1.03
2023-03-02T02:03:09.457Z,1.07
2023-03-02T02:03:26.487Z,1.08
2023-03-02T02:03:39.283Z,1.07
2023-03-02T02:03:52.113Z,1.07
2023-03-02T02:04:06.599Z,1.07
2023-03-02T02:04:20.867Z,1.07
2023-03-02T02:04:37.676Z,1.07
2023-03-02T02:04:51.853Z,1.08
2023-03-02T02:05:04.978Z,1.07
2023-03-02T02:05:22.209Z,1.07
2023-03-02T02:05:36.607Z,1.08
2023-03-02T02:05:59.869Z,1.09
2023-03-02T02:06:19.598Z,1.09
2023-03-02T02:06:38.174Z,1.05
2023-03-02T02:06:55.658Z,1.08
2023-03-02T02:07:09.478Z,1.09
2023-03-02T02:07:22.419Z,1.10
2023-03-02T02:07:35.516Z,1.09
2023-03-02T02:07:48.228Z,1.10
2023-03-02T02:08:01.213Z,1.10
2023-03-02T02:08:14.863Z,1.10
2023-03-02T02:08:29.498Z,1.11
2023-03-02T02:08:44.396Z,1.12
2023-03-02T02:08:58.712Z,1.11
2023-03-02T02:09:15.346Z,1.11
2023-03-02T02:09:30.487Z,1.11
2023-03-02T02:09:47.274Z,1.11
2023-03-02T02:10:00.835Z,1.11
2023-03-02T02:10:15.011Z,1.11
2023-03-02T02:10:28.319Z,1.10
2023-03-02T02:10:41.213Z,1.12
2023-03-02T02:10:55.014Z,1.12
2023-03-02T02:11:07.867Z,1.10
2023-03-02T02:11:20.573Z,1.12
2023-03-02T02:11:33.257Z,1.12
2023-03-02T02:11:47.628Z,1.12
2023-03-02T02:12:00.348Z,1.12
2023-03-02T02:12:15.427Z,1.12
2023-03-02T02:12:28.137Z,1.12
2023-03-02T02:12:40.995Z,1.12
2023-03-02T02:12:54.651Z,1.12
2023-03-02T02:13:10.093Z,1.14
2023-03-02T02:13:22.845Z,1.12
2023-03-02T02:13:35.681Z,1.13
2023-03-02T02:13:48.627Z,1.15
2023-03-02T02:14:03.208Z,1.14
2023-03-02T02:14:16.152Z,1.15
2023-03-02T02:14:29.304Z,1.16
2023-03-02T02:14:44.189Z,1.15
2023-03-02T02:15:00.750Z,1.15
2023-03-02T02:15:13.422Z,1.13
2023-03-02T02:15:26.821Z,1.17
2023-03-02T02:15:40.486Z,1.17
2023-03-02T02:15:53.163Z,1.17
2023-03-02T02:16:07.045Z,1.17
2023-03-02T02:16:20.831Z,1.18
2023-03-02T02:16:35.445Z,1.18
2023-03-02T02:16:48.873Z,1.19
2023-03-02T02:17:02.276Z,1.19
2023-03-02T02:17:15.651Z,1.19
2023-03-02T02:17:29.835Z,1.19
2023-03-02T02:17:42.687Z,1.19
2023-03-02T02:17:56.374Z,1.19
2023-03-02T02:18:09.610Z,1.20
2023-03-02T02:18:22.243Z,1.19
2023-03-02T02:18:38.106Z,1.19
2023-03-02T02:18:51.119Z,1.20
2023-03-02T02:19:08.428Z,1.19
2023-03-02T02:19:39.345Z,1.19
2023-03-02T02:20:07.175Z,1.20
2023-03-02T02:20:28.589Z,1.20
2023-03-02T02:20:44.961Z,1.19
2023-03-02T02:20:58.932Z,1.20
2023-03-02T02:21:12.134Z,1.19
2023-03-02T02:21:26.872Z,1.20
2023-03-02T02:21:39.625Z,1.20
2023-03-02T02:21:52.389Z,1.20
2023-03-02T02:22:05.111Z,1.20
2023-03-02T02:22:33.226Z,1.20
2023-03-02T02:22:56.890Z,1.20
2023-03-02T02:23:19.809Z,1.21
2023-03-02T02:23:39.845Z,1.21
2023-03-02T02:24:06.722Z,1.20
2023-03-02T02:24:28.212Z,1.21
2023-03-02T02:24:46.733Z,1.20
2023-03-02T02:25:03.762Z,1.22
2023-03-02T02:25:27.587Z,1.21
2023-03-02T02:25:56.173Z,1.22
2023-03-02T02:26:18.422Z,1.25
2023-03-02T02:26:37.211Z,1.23
2023-03-02T02:26:52.510Z,1.24
2023-03-02T02:27:05.134Z,1.26
2023-03-02T02:27:17.875Z,1.26
2023-03-02T02:27:33.715Z,1.27
2023-03-02T02:27:47.115Z,1.27
2023-03-02T02:28:00.044Z,1.28
2023-03-02T02:28:19.886Z,1.28
2023-03-02T02:28:37.606Z,1.28
2023-03-02T02:28:57.969Z,1.29
2023-03-02T02:29:14.728Z,1.29
2023-03-02T02:29:31.032Z,1.29
2023-03-02T02:29:48.110Z,1.31
2023-03-02T02:30:04.933Z,1.31
2023-03-02T02:30:19.299Z,1.31
2023-03-02T02:30:31.959Z,1.31
2023-03-02T02:30:46.223Z,1.31
2023-03-02T02:31:07.208Z,1.30
2023-03-02T02:31:26.734Z,1.32
2023-03-02T02:31:44.719Z,1.32
2023-03-02T02:32:01.472Z,1.32
2023-03-02T02:32:18.064Z,1.33
2023-03-02T02:32:35.260Z,1.30
2023-03-02T02:32:49.888Z,1.33
2023-03-02T02:33:04.671Z,1.32
2023-03-02T02:33:22.357Z,1.32
2023-03-02T02:33:38.463Z,1.32
2023-03-02T02:33:54.601Z,1.28
2023-03-02T02:34:14.325Z,1.25
2023-03-02T02:34:31.781Z,1.25
2023-03-02T02:34:49.842Z,1.23
2023-03-02T02:35:08.711Z,1.23
2023-03-02T02:35:24.473Z,1.23
2023-03-02T02:35:38.728Z,1.25
2023-03-02T02:36:03.872Z,1.24
2023-03-02T02:36:21.212Z,1.24
2023-03-02T02:36:41.826Z,1.23
2023-03-02T02:36:59.445Z,1.23
2023-03-02T02:37:15.595Z,1.23
2023-03-02T02:37:33.714Z,1.24
2023-03-02T02:37:50.090Z,1.23
2023-03-02T02:38:05.966Z,1.26
2023-03-02T02:38:21.721Z,1.28
2023-03-02T02:38:36.771Z,1.27
2023-03-02T02:38:53.751Z,1.28
2023-03-02T02:39:10.653Z,1.29
2023-03-02T02:39:29.397Z,1.25
2023-03-02T02:39:46.039Z,1.25
2023-03-02T02:40:01.791Z,1.25
2023-03-02T02:40:20.384Z,1.24
2023-03-02T02:40:45.252Z,1.23
2023-03-02T02:41:01.785Z,1.23
2023-03-02T02:41:21.727Z,1.26
2023-03-02T02:41:38.700Z,1.25
2023-03-02T02:41:55.286Z,1.26
2023-03-02T02:42:14.698Z,1.24
2023-03-02T02:42:31.971Z,1.24
2023-03-02T02:42:48.076Z,1.23
2023-03-02T02:43:01.134Z,1.23
2023-03-02T02:43:16.512Z,1.23
2023-03-02T02:43:32.489Z,1.20
2023-03-02T02:43:45.499Z,1.23
2023-03-02T02:43:58.423Z,1.23
2023-03-02T02:44:16.145Z,1.23
2023-03-02T02:44:28.985Z,1.24
2023-03-02T02:44:41.912Z,1.23
2023-03-02T02:44:57.727Z,1.24
2023-03-02T02:45:20.147Z,1.23
2023-03-02T02:45:33.512Z,1.23
2023-03-02T02:45:48.251Z,1.23
2023-03-02T02:46:03.126Z,1.25
2023-03-02T02:46:16.295Z,1.25
2023-03-02T02:46:29.433Z,1.24
2023-03-02T02:46:42.232Z,1.25
2023-03-02T02:46:55.012Z,1.24
2023-03-02T02:47:17.224Z,1.21
2023-03-02T02:47:31.079Z,1.22
2023-03-02T02:47:43.796Z,1.26
2023-03-02T02:47:57.563Z,1.26
2023-03-02T02:48:15.496Z,1.26
2023-03-02T02:48:31.309Z,1.26
2023-03-02T02:48:44.059Z,1.27
2023-03-02T02:48:58.333Z,1.26
2023-03-02T02:49:26.261Z,1.27
2023-03-02T02:49:40.573Z,1.28
2023-03-02T02:49:55.693Z,1.28
2023-03-02T02:50:17.088Z,1.28
2023-03-02T02:50:32.826Z,1.27
2023-03-02T02:50:47.293Z,1.29
2023-03-02T02:51:03.390Z,1.29
2023-03-02T02:51:21.708Z,1.30
2023-03-02T02:51:35.603Z,1.30
2023-03-02T02:51:48.302Z,1.31
2023-03-02T02:52:01.923Z,1.29
2023-03-02T02:52:18.184Z,1.31
2023-03-02T02:52:31.871Z,1.31
2023-03-02T02:52:46.502Z,1.31
2023-03-02T02:53:03.635Z,1.31
2023-03-02T02:53:19.423Z,1.31
2023-03-02T02:53:41.939Z,1.32
2023-03-02T02:53:59.991Z,1.32
2023-03-02T02:54:18.676Z,1.33
2023-03-02T02:54:32.967Z,1.33
2023-03-02T02:54:48.277Z,1.33
2023-03-02T02:55:00.987Z,1.32
2023-03-02T02:55:20.199Z,1.33
2023-03-02T02:55:34.884Z,1.34
2023-03-02T02:55:52.137Z,1.34
2023-03-02T02:56:08.770Z,1.35
2023-03-02T02:56:21.476Z,1.34
2023-03-02T02:56:37.812Z,1.35
2023-03-02T02:56:52.636Z,1.36
2023-03-02T02:57:06.964Z,1.36
2023-03-02T02:57:21.060Z,1.37
2023-03-02T02:57:33.799Z,1.37
2023-03-02T02:57:47.493Z,1.37
2023-03-02T02:58:02.863Z,1.39
2023-03-02T02:58:26.075Z,1.39
2023-03-02T02:58:43.373Z,1.38
2023-03-02T02:58:59.524Z,1.39
2023-03-02T02:59:18.555Z,1.40
2023-03-02T02:59:35.573Z,1.41
2023-03-02T02:59:51.248Z,1.37
2023-03-02T03:00:06.726Z,1.42
2023-03-02T03:00:22.981Z,1.42
2023-03-02T03:00:37.228Z,1.40
2023-03-02T03:00:50.319Z,1.40
2023-03-02T03:01:03.704Z,1.42
2023-03-02T03:01:18.746Z,1.42
2023-03-02T03:01:33.540Z,1.42
2023-03-02T03:01:48.635Z,1.43
2023-03-02T03:02:01.537Z,1.43
2023-03-02T03:02:19.802Z,1.42
2023-03-02T03:02:37.517Z,1.40
2023-03-02T03:02:53.886Z,1.43
2023-03-02T03:03:29.129Z,1.43
2023-03-02T03:03:50.051Z,1.42
2023-03-02T03:04:05.653Z,1.42
2023-03-02T03:04:21.999Z,1.42
2023-03-02T03:04:35.707Z,1.42
2023-03-02T03:04:48.958Z,1.43
2023-03-02T03:05:03.426Z,1.42
2023-03-02T03:05:16.958Z,1.43
2023-03-02T03:05:29.577Z,1.43
2023-03-02T03:05:42.212Z,1.43
2023-03-02T03:05:54.915Z,1.43
2023-03-02T03:06:14.272Z,1.44
2023-03-02T03:06:30.594Z,1.44
2023-03-02T03:06:50.826Z,1.44
2023-03-02T03:07:07.619Z,1.45
2023-03-02T03:07:22.890Z,1.45
2023-03-02T03:07:35.507Z,1.46
2023-03-02T03:07:48.184Z,1.46
2023-03-02T03:08:11.021Z,1.45
2023-03-02T03:08:56.133Z,1.46
2023-03-02T03:09:11.809Z,1.47
2023-03-02T03:09:25.505Z,1.47
2023-03-02T03:09:38.170Z,1.47
2023-03-02T03:09:59.450Z,1.48
2023-03-02T03:10:17.992Z,1.47
2023-03-02T03:10:35.105Z,1.47
2023-03-02T03:10:47.781Z,1.47
2023-03-02T03:11:01.610Z,1.48
2023-03-02T03:11:19.451Z,1.48
2023-03-02T03:11:34.864Z,1.48
2023-03-02T03:11:50.834Z,1.47
2023-03-02T03:12:14.114Z,1.48
2023-03-02T03:12:29.816Z,1.48
2023-03-02T03:12:43.420Z,1.50
2023-03-02T03:12:56.874Z,1.50
2023-03-02T03:13:12.480Z,1.50
2023-03-02T03:13:25.136Z,1.50
2023-03-02T03:13:38.798Z,1.50
2023-03-02T03:13:57.201Z,1.51
2023-03-02T03:14:14.407Z,1.51
2023-03-02T03:14:30.791Z,1.52
2023-03-02T03:14:43.873Z,1.52
2023-03-02T03:14:56.551Z,1.53
2023-03-02T03:15:10.518Z,1.52
2023-03-02T03:15:23.328Z,1.54
2023-03-02T03:15:36.613Z,1.52